Time;durP1;ratioP1;P1;durP2;ratioP2;P2;SDS_P1;SDS_P2;PMS_P1;PMS_P2;Temp;Humidity;BMP_temperature;BMP_pressure;BME280_temperature;BME280_humidity;BME280_pressure;Samples;Min_cycle;Max_cycle;Signal;HPM_P1;HPM_P2
2023/05/04 00:00:58;;;;;;;15.30;9.77;;;;;;;7.51;76.60;102243.19;4957151;28;20027;-77
2023/05/04 00:03:23;;;;;;;21.35;10.52;;;;;;;7.77;76.63;102276.72;4974352;28;20033;-81
2023/05/04 00:05:48;;;;;;;13.95;9.60;;;;;;;7.76;76.09;102273.28;4974308;28;20023;-77
2023/05/04 00:08:14;;;;;;;15.25;9.45;;;;;;;7.78;75.80;102269.84;4956688;28;20068;-78
2023/05/04 00:10:39;;;;;;;13.30;9.45;;;;;;;7.58;75.83;102230.13;4974396;28;20364;-77
2023/05/04 00:13:04;;;;;;;14.73;9.38;;;;;;;7.77;75.60;102266.44;4974175;28;20037;-77
2023/05/04 00:15:29;;;;;;;14.60;9.15;;;;;;;7.81;74.95;102260.31;4974403;28;20471;-77
2023/05/04 00:17:55;;;;;;;13.00;8.82;;;;;;;7.52;74.93;102202.00;4973988;28;20027;-76
2023/05/04 00:20:21;;;;;;;14.07;9.10;;;;;;;7.83;74.98;102255.97;4973963;28;20038;-77
2023/05/04 00:22:46;;;;;;;17.38;10.10;;;;;;;7.81;75.99;102251.75;4974185;28;20038;-77
2023/05/04 00:25:11;;;;;;;13.32;9.40;;;;;;;7.80;75.46;102252.66;4974156;28;20049;-80
2023/05/04 00:27:36;;;;;;;13.73;9.15;;;;;;;7.52;75.23;102199.44;4956746;28;20410;-77
2023/05/04 00:30:02;;;;;;;14.18;10.00;;;;;;;7.80;75.21;102240.63;4974107;28;20402;-77
2023/05/04 00:32:27;;;;;;;11.05;8.90;;;;;;;7.81;75.40;102239.75;4973877;28;20034;-76
2023/05/04 00:34:53;;;;;;;15.63;9.40;;;;;;;7.83;75.13;102232.81;4973745;28;20042;-79
2023/05/04 00:37:18;;;;;;;15.93;10.15;;;;;;;7.79;74.73;102225.25;4973967;28;20035;-78
2023/05/04 00:39:43;;;;;;;14.15;9.57;;;;;;;7.86;74.81;102229.31;4973671;28;20031;-77
2023/05/04 00:42:09;;;;;;;16.92;10.02;;;;;;;7.81;74.87;102232.03;4973722;28;20113;-77
2023/05/04 00:44:34;;;;;;;12.95;9.63;;;;;;;7.85;75.17;102237.91;4973913;28;20031;-77
2023/05/04 00:47:02;;;;;;;14.00;9.90;;;;;;;7.85;75.44;102235.34;4973762;28;20110;-77
2023/05/04 00:49:27;;;;;;;13.95;9.82;;;;;;;7.84;74.97;102228.50;4973708;28;20019;-76
2023/05/04 00:51:54;;;;;;;13.52;9.35;;;;;;;7.81;75.06;102218.31;4974012;28;20542;-77
2023/05/04 00:54:20;;;;;;;17.25;9.75;;;;;;;7.79;75.03;102217.53;4973785;28;20027;-76
2023/05/04 00:56:46;;;;;;;14.15;9.07;;;;;;;7.58;75.53;102181.28;4973688;28;20379;-82
2023/05/04 00:59:12;;;;;;;13.73;9.48;;;;;;;7.66;75.30;102199.03;4973337;28;20085;-79
2023/05/04 01:01:39;;;;;;;14.02;9.32;;;;;;;7.76;75.39;102221.84;4973492;28;20097;-77
2023/05/04 01:04:04;;;;;;;12.20;9.20;;;;;;;7.51;75.28;102166.06;4973237;28;20440;-80
2023/05/04 01:06:59;;;;;;;16.23;9.50;;;;;;;7.75;75.28;102220.16;4973760;28;20065;-77
2023/05/04 01:10:02;;;;;;;16.27;10.23;;;;;;;7.71;75.63;102221.16;4973468;28;20478;-78
2023/05/04 01:12:41;;;;;;;15.30;9.77;;;;;;;7.68;76.08;102221.25;4956375;28;20043;-77
2023/05/04 01:15:08;;;;;;;14.95;9.43;;;;;;;7.59;75.96;102200.94;4973514;28;20054;-77
2023/05/04 01:17:33;;;;;;;13.52;9.43;;;;;;;7.44;75.78;102175.66;4973380;28;20077;-77
2023/05/04 01:19:58;;;;;;;12.23;9.88;;;;;;;7.60;76.53;102212.06;4973708;28;20027;-76
2023/05/04 01:22:24;;;;;;;15.30;10.02;;;;;;;7.53;76.56;102192.56;4973507;28;20057;-78
2023/05/04 01:24:50;;;;;;;15.07;9.55;;;;;;;7.55;76.86;102190.78;4973517;28;20026;-79
2023/05/04 01:27:38;;;;;;;14.48;9.25;;;;;;;7.48;77.20;102193.53;4973326;28;20467;-78
2023/05/04 01:30:13;;;;;;;15.13;8.93;;;;;;;7.44;77.30;102188.53;4971208;28;20035;-76
2023/05/04 01:32:40;;;;;;;13.80;9.20;;;;;;;7.32;77.13;102176.03;4955701;28;20027;-78
2023/05/04 01:35:06;;;;;;;14.35;9.55;;;;;;;7.37;77.71;102190.41;4973289;28;20074;-78
2023/05/04 01:37:32;;;;;;;14.85;10.27;;;;;;;7.26;78.04;102183.88;4973325;28;20030;-77
2023/05/04 01:39:57;;;;;;;18.15;10.50;;;;;;;7.29;78.24;102194.09;4973310;28;20034;-78
2023/05/04 01:42:22;;;;;;;18.27;10.02;;;;;;;7.21;78.49;102191.72;4973177;28;20050;-77
2023/05/04 01:44:48;;;;;;;16.05;9.93;;;;;;;7.22;78.71;102200.28;4973446;28;20110;-78
2023/05/04 01:47:13;;;;;;;11.93;9.15;;;;;;;7.20;79.09;102192.63;4973339;28;20069;-77
2023/05/04 01:49:38;;;;;;;16.95;10.25;;;;;;;7.15;79.32;102192.72;4972912;28;20023;-78
2023/05/04 01:52:04;;;;;;;17.95;9.85;;;;;;;7.14;79.46;102196.19;4974876;28;20035;-78
2023/05/04 01:54:29;;;;;;;13.40;9.80;;;;;;;7.08;79.70;102191.22;4976922;28;20026;-83
2023/05/04 01:56:54;;;;;;;13.98;10.07;;;;;;;6.97;80.13;102182.09;4959399;28;20506;-81
2023/05/04 01:59:20;;;;;;;14.57;10.27;;;;;;;7.03;80.22;102197.34;4976715;28;20154;-83
2023/05/04 02:01:45;;;;;;;16.08;10.35;;;;;;;7.02;80.20;102193.94;4976695;28;20027;-84
2023/05/04 02:04:10;;;;;;;15.27;9.77;;;;;;;7.02;80.26;102196.50;4959080;28;20384;-84
2023/05/04 02:06:36;;;;;;;15.63;9.93;;;;;;;7.02;80.54;102199.09;4976641;28;20053;-84
2023/05/04 02:09:02;;;;;;;16.45;9.55;;;;;;;7.00;80.87;102198.28;4976746;28;20035;-85
2023/05/04 02:11:27;;;;;;;16.85;10.38;;;;;;;6.98;80.64;102192.34;4976597;28;20383;-85
2023/05/04 02:13:53;;;;;;;14.95;10.50;;;;;;;6.88;80.77;102173.78;4976617;28;20039;-84
2023/05/04 02:16:18;;;;;;;13.73;9.65;;;;;;;6.73;81.08;102155.34;4976511;28;20031;-85
2023/05/04 02:18:43;;;;;;;15.40;9.95;;;;;;;6.94;81.33;102187.31;4976346;28;20019;-85
2023/05/04 02:21:09;;;;;;;15.77;10.00;;;;;;;6.92;81.40;102189.94;4976449;28;20031;-84
2023/05/04 02:23:34;;;;;;;15.52;10.13;;;;;;;6.88;81.45;102198.56;4958926;28;20489;-83
2023/05/04 02:26:00;;;;;;;14.82;9.65;;;;;;;6.86;81.94;102196.06;4976307;28;20027;-82
2023/05/04 02:28:25;;;;;;;12.80;9.40;;;;;;;6.84;81.90;102191.84;4976376;28;20034;-84
2023/05/04 02:30:51;;;;;;;14.70;9.73;;;;;;;6.47;81.94;102131.16;4976354;28;20050;-83
2023/05/04 02:33:16;;;;;;;17.13;10.25;;;;;;;6.81;82.20;102181.66;4958206;28;20157;-83
2023/05/04 02:35:41;;;;;;;16.67;10.15;;;;;;;6.72;82.59;102164.78;4975997;28;20531;-81
2023/05/04 02:38:07;;;;;;;14.10;10.23;;;;;;;6.75;82.29;102179.25;4976118;28;20105;-83
2023/05/04 02:40:32;;;;;;;15.02;10.45;;;;;;;6.49;82.68;102136.25;4976117;28;20027;-81
2023/05/04 02:42:58;;;;;;;15.13;10.05;;;;;;;6.67;82.70;102170.88;4975972;28;20027;-81
2023/05/04 02:45:23;;;;;;;17.35;10.77;;;;;;;6.60;83.14;102176.19;4976016;28;20041;-84
2023/05/04 02:47:48;;;;;;;14.73;11.18;;;;;;;6.60;83.30;102172.78;4958586;28;20378;-84
2023/05/04 02:50:14;;;;;;;14.55;9.90;;;;;;;6.55;83.65;102175.44;4975995;28;20023;-80
2023/05/04 02:52:39;;;;;;;16.38;9.68;;;;;;;6.50;83.71;102179.03;4975784;28;20027;-78
2023/05/04 02:55:05;;;;;;;16.48;10.10;;;;;;;6.36;84.03;102158.81;4975731;28;20086;-78
2023/05/04 02:57:31;;;;;;;14.07;10.18;;;;;;;6.46;84.34;102173.09;4975744;28;20031;-76
2023/05/04 02:59:56;;;;;;;15.93;9.98;;;;;;;6.42;84.81;102175.81;4975513;28;20105;-77
2023/05/04 03:02:21;;;;;;;18.92;10.93;;;;;;;6.39;84.77;102170.72;4975482;28;20035;-77
2023/05/04 03:04:47;;;;;;;12.98;10.63;;;;;;;6.16;84.85;102141.34;4975362;28;20027;-77
2023/05/04 03:07:12;;;;;;;18.65;11.60;;;;;;;6.28;84.98;102163.28;4975582;28;20037;-77
2023/05/04 03:09:37;;;;;;;15.48;10.70;;;;;;;6.20;85.27;102155.78;4975459;28;20062;-78
2023/05/04 03:12:03;;;;;;;15.13;11.88;;;;;;;6.11;85.70;102153.44;4975546;28;20088;-77
2023/05/04 03:14:29;;;;;;;17.23;10.70;;;;;;;6.22;85.90;102173.72;4957962;28;20043;-77
2023/05/04 03:16:55;;;;;;;15.75;9.82;;;;;;;6.08;86.20;102155.22;4975530;28;20054;-76
2023/05/04 03:19:20;;;;;;;16.23;10.13;;;;;;;6.09;86.53;102162.03;4975179;28;20436;-77
2023/05/04 03:21:46;;;;;;;15.63;11.68;;;;;;;6.00;86.64;102156.25;4957700;28;20042;-76
2023/05/04 03:24:12;;;;;;;16.60;11.35;;;;;;;6.06;86.73;102170.63;4975305;28;20077;-77
2023/05/04 03:26:37;;;;;;;15.05;10.85;;;;;;;5.93;86.81;102147.00;4975356;28;20027;-79
2023/05/04 03:29:03;;;;;;;16.20;10.60;;;;;;;5.97;87.35;102151.16;4975194;28;20123;-77
2023/05/04 03:31:28;;;;;;;14.18;10.48;;;;;;;5.97;87.28;102148.59;4975142;28;20085;-77
2023/05/04 03:33:54;;;;;;;16.67;11.90;;;;;;;5.88;87.56;102125.72;4975097;28;20059;-77
2023/05/04 03:36:19;;;;;;;16.67;10.77;;;;;;;5.95;87.42;102139.28;4974596;28;20097;-77
2023/05/04 03:38:44;;;;;;;15.90;10.95;;;;;;;6.01;87.23;102150.25;4975034;28;20027;-76
2023/05/04 03:41:10;;;;;;;15.43;10.77;;;;;;;5.84;87.57;102121.53;4974954;28;20113;-76
2023/05/04 03:43:35;;;;;;;15.05;10.60;;;;;;;5.85;88.20;102119.81;4957498;28;20038;-76
2023/05/04 03:46:00;;;;;;;15.88;10.05;;;;;;;5.93;87.94;102141.88;4974855;28;20031;-76
2023/05/04 03:48:26;;;;;;;16.92;10.50;;;;;;;5.79;87.88;102117.38;4974634;28;20110;-77
2023/05/04 03:50:51;;;;;;;17.38;10.95;;;;;;;5.80;88.27;102109.69;4974414;28;20027;-77
2023/05/04 03:53:17;;;;;;;18.15;10.93;;;;;;;5.78;88.05;102108.00;4974633;28;20034;-76
2023/05/04 03:55:42;;;;;;;15.00;10.90;;;;;;;5.84;88.56;102121.53;4974794;28;20478;-76
2023/05/04 03:58:07;;;;;;;15.07;10.73;;;;;;;5.94;88.19;102137.59;4974492;28;20042;-77
2023/05/04 04:00:33;;;;;;;17.50;10.43;;;;;;;5.78;88.04;102111.41;4974379;28;20093;-77
2023/05/04 04:02:58;;;;;;;19.02;11.55;;;;;;;5.53;88.19;102070.13;4974494;28;20564;-77
2023/05/04 04:05:23;;;;;;;17.85;9.80;;;;;;;5.69;88.46;102096.25;4974143;28;20038;-77
2023/05/04 04:07:49;;;;;;;15.43;9.95;;;;;;;5.94;88.55;102135.88;4974599;28;20075;-78
2023/05/04 04:10:14;;;;;;;14.35;10.25;;;;;;;5.97;88.36;102137.50;4974299;28;20030;-77
2023/05/04 04:12:40;;;;;;;16.88;10.73;;;;;;;5.99;88.12;102136.59;4956494;28;20407;-77
2023/05/04 04:15:05;;;;;;;14.07;10.18;;;;;;;5.84;88.22;102107.88;4955986;28;20053;-79
2023/05/04 04:17:31;;;;;;;15.40;10.52;;;;;;;5.84;88.39;102106.16;4956147;28;20122;-78
2023/05/04 04:19:56;;;;;;;16.95;10.00;;;;;;;5.83;88.72;102098.50;4974078;28;20360;-77
2023/05/04 04:22:21;;;;;;;15.77;10.40;;;;;;;6.08;88.13;102130.41;4974186;28;20121;-77
2023/05/04 04:24:47;;;;;;;14.02;9.90;;;;;;;6.09;87.75;102123.56;4974211;28;20046;-78
2023/05/04 04:27:12;;;;;;;13.55;10.13;;;;;;;6.17;87.68;102124.22;4973900;28;20023;-78
2023/05/04 04:29:38;;;;;;;17.40;10.18;;;;;;;6.02;87.54;102092.09;4956713;28;20050;-78
2023/05/04 04:32:04;;;;;;;15.52;10.82;;;;;;;6.29;87.82;102122.22;4973746;28;20026;-78
2023/05/04 04:34:30;;;;;;;17.02;9.73;;;;;;;6.35;86.69;102121.22;4974201;28;20058;-79
2023/05/04 04:36:55;;;;;;;16.25;10.25;;;;;;;6.39;86.31;102106.56;4973769;28;20509;-78
2023/05/04 04:39:21;;;;;;;17.40;9.68;;;;;;;6.53;85.90;102112.22;4973919;28;20026;-79
2023/05/04 04:41:46;;;;;;;15.25;9.80;;;;;;;6.59;85.67;102117.22;4973820;28;20031;-79
2023/05/04 04:44:12;;;;;;;16.30;9.88;;;;;;;6.61;85.39;102116.28;4973841;28;20043;-78
2023/05/04 04:46:37;;;;;;;12.80;8.98;;;;;;;6.75;85.33;102123.59;4973594;28;20022;-78
2023/05/04 04:49:03;;;;;;;14.77;9.95;;;;;;;6.64;84.53;102088.84;4973710;28;20034;-77
2023/05/04 04:51:28;;;;;;;17.50;10.32;;;;;;;6.89;84.23;102118.97;4973629;28;20058;-78
2023/05/04 04:53:53;;;;;;;16.58;10.05;;;;;;;6.79;83.92;102085.88;4973642;28;20497;-78
2023/05/04 04:56:19;;;;;;;13.43;9.23;;;;;;;7.06;83.81;102115.06;4973531;28;20039;-82
2023/05/04 04:58:45;;;;;;;13.15;9.43;;;;;;;7.11;83.68;102115.81;4973586;28;20034;-85
2023/05/04 05:01:16;;;;;;;14.77;9.73;;;;;;;7.11;83.42;102095.25;4973277;28;20138;-85
2023/05/04 05:03:43;;;;;;;13.77;9.35;;;;;;;7.26;82.38;102117.09;4973994;28;20062;-82
2023/05/04 05:06:09;;;;;;;13.70;8.48;;;;;;;7.05;82.44;102065.44;4973496;28;20564;-80
2023/05/04 05:08:34;;;;;;;14.95;9.73;;;;;;;7.47;82.18;102119.91;4956183;28;20027;-85
2023/05/04 05:11:00;;;;;;;15.63;10.05;;;;;;;7.66;81.71;102116.75;4973450;28;20057;-85
2023/05/04 05:13:25;;;;;;;14.15;9.52;;;;;;;7.81;80.51;102097.47;4973356;28;20038;-79
2023/05/04 05:15:50;;;;;;;15.77;9.23;;;;;;;8.11;79.31;102121.38;4973350;28;20030;-85
2023/05/04 05:18:16;;;;;;;11.65;9.00;;;;;;;7.89;78.34;102075.75;4973270;28;20035;-83
2023/05/04 05:20:41;;;;;;;11.77;8.85;;;;;;;8.18;78.08;102118.56;4973318;28;20498;-86
2023/05/04 05:23:06;;;;;;;13.25;9.30;;;;;;;8.27;78.05;102126.00;4973425;28;20418;-87
2023/05/04 05:25:32;;;;;;;12.57;9.05;;;;;;;8.04;78.19;102066.69;4973733;28;20439;-87
2023/05/04 05:27:57;;;;;;;14.95;9.90;;;;;;;8.24;77.87;102091.78;4976607;28;20375;-87
2023/05/04 05:30:23;;;;;;;14.25;8.85;;;;;;;8.44;77.43;102114.31;4977140;28;20035;-80
2023/05/04 05:32:48;;;;;;;13.55;9.00;;;;;;;8.50;77.58;102121.84;4977040;28;20051;-85
2023/05/04 05:35:14;;;;;;;13.98;9.77;;;;;;;8.68;77.36;102125.53;4976990;28;20019;-82
2023/05/04 05:37:39;;;;;;;13.43;8.50;;;;;;;8.74;76.55;102097.81;4976938;28;20035;-84
2023/05/04 05:40:08;;;;;;;12.07;8.30;;;;;;;9.09;76.00;102099.13;4959850;28;20387;-82
2023/05/04 05:42:33;;;;;;;13.80;9.07;;;;;;;9.61;74.02;102091.19;4977043;28;20089;-84
2023/05/04 05:45:00;;;;;;;13.95;8.82;;;;;;;10.07;72.10;102123.75;4977005;28;20430;-84
2023/05/04 05:47:26;;;;;;;14.15;8.57;;;;;;;10.40;70.05;102112.97;4959504;28;20122;-84
2023/05/04 05:49:51;;;;;;;13.93;8.45;;;;;;;10.83;69.07;102087.00;4976767;28;20379;-80
2023/05/04 05:52:17;;;;;;;11.63;8.40;;;;;;;11.36;66.83;102099.25;4959162;28;20139;-83
2023/05/04 05:54:42;;;;;;;11.95;8.68;;;;;;;11.63;65.00;102119.59;4976810;28;20033;-82
2023/05/04 05:57:07;;;;;;;10.95;8.00;;;;;;;11.70;63.98;102085.59;4976562;28;20105;-83
2023/05/04 05:59:33;;;;;;;16.17;9.10;;;;;;;12.42;62.66;102115.75;4976435;28;20092;-84
2023/05/04 06:01:58;;;;;;;12.98;8.32;;;;;;;12.49;61.66;102108.53;4976600;28;20102;-83
2023/05/04 06:04:24;;;;;;;13.52;7.68;;;;;;;12.31;60.79;102077.44;4976674;28;20035;-84
2023/05/04 06:06:49;;;;;;;15.45;8.57;;;;;;;12.19;60.58;102062.53;4976360;28;20478;-74
2023/05/04 06:09:15;;;;;;;11.55;8.32;;;;;;;12.52;60.84;102098.00;4976409;28;20023;-84
2023/05/04 06:11:41;;;;;;;12.23;9.05;;;;;;;12.13;59.84;101997.25;4976333;28;20078;-83
2023/05/04 06:14:06;;;;;;;11.90;7.25;;;;;;;12.53;59.50;102066.84;4976440;28;20434;-78
2023/05/04 06:16:32;;;;;;;10.43;7.40;;;;;;;12.63;60.59;102098.28;4975165;28;20520;-81
2023/05/04 06:18:57;;;;;;;12.40;7.93;;;;;;;12.31;59.24;102019.63;4976907;28;20081;-77
2023/05/04 06:21:23;;;;;;;12.60;7.95;;;;;;;12.80;58.90;102087.06;4976011;28;20139;-78
2023/05/04 06:23:48;;;;;;;10.43;7.78;;;;;;;12.72;58.69;102087.44;4976162;28;20157;-79
2023/05/04 06:26:13;;;;;;;12.55;7.53;;;;;;;12.82;58.83;102075.69;4958985;28;20070;-77
2023/05/04 06:28:39;;;;;;;11.75;8.32;;;;;;;12.78;58.98;102011.97;4976656;28;20058;-76
2023/05/04 06:31:04;;;;;;;10.70;8.00;;;;;;;13.23;58.13;102057.09;4976396;28;20031;-79
2023/05/04 06:33:29;;;;;;;15.02;7.82;;;;;;;13.71;57.26;102076.06;4975716;28;20459;-78
2023/05/04 06:35:55;;;;;;;11.70;7.50;;;;;;;13.70;56.18;102019.91;4975908;28;20034;-77
2023/05/04 06:38:20;;;;;;;11.75;7.70;;;;;;;13.96;55.42;102063.38;4957781;28;20475;-80
2023/05/04 06:40:46;;;;;;;12.13;8.40;;;;;;;14.15;55.88;102060.53;4975931;28;20471;-81
2023/05/04 06:43:12;;;;;;;12.32;8.20;;;;;;;14.32;54.56;102062.97;4975897;28;20117;-81
2023/05/04 06:45:38;;;;;;;11.32;8.00;;;;;;;14.17;53.78;102037.94;4975673;28;20378;-80
2023/05/04 06:48:04;;;;;;;14.10;7.60;;;;;;;14.20;54.64;102040.34;4975909;28;20523;-86
2023/05/04 06:50:31;;;;;;;13.57;7.90;;;;;;;14.19;54.35;102025.66;4976090;28;20360;-79
2023/05/04 06:53:07;;;;;;;11.70;7.63;;;;;;;14.20;54.71;102047.28;4975216;28;20117;-82
2023/05/04 06:55:33;;;;;;;14.30;7.32;;;;;;;14.40;54.78;102056.50;4975398;28;20106;-87
2023/05/04 06:57:58;;;;;;;11.25;7.97;;;;;;;14.38;54.08;102051.41;4976028;28;20105;-88
2023/05/04 07:00:24;;;;;;;13.15;7.70;;;;;;;14.28;53.69;102025.13;4975976;28;20045;-81
2023/05/04 07:02:51;;;;;;;13.98;8.10;;;;;;;14.55;54.41;102030.47;4975544;28;20030;-77
2023/05/04 07:05:17;;;;;;;12.43;7.13;;;;;;;14.84;52.14;102039.06;4975215;28;20035;-76
2023/05/04 07:07:42;;;;;;;11.20;7.95;;;;;;;15.09;51.73;102050.56;4974875;28;20041;-77
2023/05/04 07:10:08;;;;;;;12.02;7.68;;;;;;;15.17;51.40;102030.94;4975368;28;20077;-78
2023/05/04 07:12:33;;;;;;;12.38;7.13;;;;;;;15.73;49.61;102047.34;4975699;28;20042;-76
2023/05/04 07:14:58;;;;;;;11.68;7.32;;;;;;;15.81;50.38;102028.59;4975291;28;20050;-76
2023/05/04 07:17:24;;;;;;;9.00;6.63;;;;;;;15.66;49.92;102035.66;4975169;28;20057;-76
2023/05/04 07:19:53;;;;;;;9.88;6.63;;;;;;;15.47;50.08;102024.72;4974907;28;20070;-76
2023/05/04 07:22:19;;;;;;;9.95;6.72;;;;;;;15.17;50.88;102022.31;4974856;28;20035;-76
2023/05/04 07:24:45;;;;;;;11.13;6.65;;;;;;;14.98;52.05;102027.84;4974903;28;20471;-77
2023/05/04 07:27:11;;;;;;;11.32;7.35;;;;;;;14.75;52.60;102010.19;4974846;28;20109;-75
2023/05/04 07:29:36;;;;;;;10.75;7.70;;;;;;;14.77;52.81;102024.78;4975202;28;20419;-76
2023/05/04 07:32:01;;;;;;;13.95;7.35;;;;;;;14.75;53.98;102020.59;4973802;28;20102;-73
2023/05/04 07:34:27;;;;;;;10.98;7.15;;;;;;;14.66;52.70;102016.00;4974975;28;20422;-77
2023/05/04 07:36:52;;;;;;;10.55;6.95;;;;;;;14.57;54.05;102018.22;4957358;28;20734;-75
2023/05/04 07:39:17;;;;;;;10.27;6.70;;;;;;;14.54;52.99;102018.38;4974348;28;20035;-75
2023/05/04 07:41:43;;;;;;;11.77;6.93;;;;;;;14.39;54.54;101982.91;4974576;28;20102;-75
2023/05/04 07:44:10;;;;;;;10.43;6.82;;;;;;;14.67;53.46;102018.50;4974654;28;20061;-76
2023/05/04 07:46:35;;;;;;;11.05;6.88;;;;;;;14.63;53.94;102019.59;4974483;28;20030;-77
2023/05/04 07:49:01;;;;;;;11.25;6.93;;;;;;;14.09;53.97;101927.59;4973494;28;20031;-80
2023/05/04 07:51:27;;;;;;;13.38;7.53;;;;;;;14.69;53.42;102024.44;4974492;28;20027;-75
2023/05/04 07:53:52;;;;;;;11.43;6.78;;;;;;;14.73;53.39;102019.88;4974180;28;20046;-76
2023/05/04 07:56:18;;;;;;;10.85;6.68;;;;;;;14.81;53.13;102020.22;4974463;28;20035;-76
2023/05/04 07:58:43;;;;;;;9.15;6.63;;;;;;;14.81;52.70;102015.88;4974553;28;20030;-85
2023/05/04 08:01:08;;;;;;;12.75;7.20;;;;;;;14.99;52.94;102018.25;4974469;28;20432;-86
2023/05/04 08:03:34;;;;;;;9.02;6.78;;;;;;;15.07;52.50;101990.84;4974365;28;20041;-84
2023/05/04 08:05:59;;;;;;;11.40;6.82;;;;;;;15.13;51.90;101993.03;4974638;28;20022;-88
2023/05/04 08:08:24;;;;;;;12.20;6.63;;;;;;;15.16;51.78;101985.06;4974220;28;20098;-87
2023/05/04 08:10:50;;;;;;;10.40;6.57;;;;;;;15.35;52.40;101970.84;4974738;28;20066;-83
2023/05/04 08:13:15;;;;;;;15.52;7.07;;;;;;;15.76;51.52;102004.63;4974436;28;20210;-78
2023/05/04 08:15:41;;;;;;;12.05;6.93;;;;;;;15.75;51.67;101961.28;4974110;28;20042;-77
2023/05/04 08:18:06;;;;;;;10.98;6.85;;;;;;;16.06;50.93;101996.53;4974213;28;20042;-76
2023/05/04 08:20:31;;;;;;;11.20;7.18;;;;;;;16.19;51.34;101991.31;4974260;28;20042;-75
2023/05/04 08:22:57;;;;;;;11.35;7.43;;;;;;;16.34;51.72;101995.50;4974203;28;20030;-75
2023/05/04 08:25:22;;;;;;;13.95;7.68;;;;;;;16.33;51.02;101994.66;4973746;28;20396;-76
2023/05/04 08:27:48;;;;;;;10.68;6.53;;;;;;;16.16;49.36;101975.91;4974236;28;20030;-75
2023/05/04 08:30:13;;;;;;;10.73;6.53;;;;;;;16.15;50.19;101974.22;4974140;28;20121;-78
2023/05/04 08:32:39;;;;;;;10.07;6.57;;;;;;;16.19;50.80;101963.47;4974125;28;20387;-80
2023/05/04 08:35:05;;;;;;;12.45;6.85;;;;;;;16.34;50.62;101983.28;4973959;28;20094;-79
2023/05/04 08:37:30;;;;;;;10.45;7.30;;;;;;;16.43;50.12;101983.59;4974052;28;20101;-78
2023/05/04 08:39:56;;;;;;;14.15;7.30;;;;;;;16.30;49.36;101960.97;4973602;28;20023;-80
2023/05/04 08:42:27;;;;;;;12.82;6.60;;;;;;;16.53;50.61;101979.41;4973796;28;20470;-77
2023/05/04 08:44:55;;;;;;;14.73;6.97;;;;;;;16.30;49.10;101940.13;4973692;28;20058;-78
2023/05/04 08:47:20;;;;;;;9.98;6.90;;;;;;;16.65;50.41;101968.13;4956379;28;20033;-79
2023/05/04 08:49:45;;;;;;;13.10;7.03;;;;;;;16.71;49.12;101972.09;4973785;28;20406;-77
2023/05/04 08:52:12;;;;;;;12.32;7.05;;;;;;;16.70;49.13;101955.59;4973856;28;20031;-77
2023/05/04 08:54:38;;;;;;;10.63;6.50;;;;;;;16.85;48.95;101957.13;4973461;28;20022;-77
2023/05/04 08:57:04;;;;;;;12.07;6.93;;;;;;;16.70;49.19;101913.88;4973611;28;20035;-77
2023/05/04 08:59:30;;;;;;;10.88;7.57;;;;;;;16.76;47.66;101903.00;4973290;28;20091;-76
2023/05/04 09:01:58;;;;;;;12.65;6.40;;;;;;;16.83;49.64;101898.19;4955726;28;20041;-81
2023/05/04 09:04:25;;;;;;;12.23;7.07;;;;;;;16.93;47.32;101914.84;4973570;28;20042;-81
2023/05/04 09:06:52;;;;;;;10.88;7.15;;;;;;;17.08;47.63;101933.75;4973639;28;20526;-77
2023/05/04 09:09:19;;;;;;;12.65;7.45;;;;;;;17.15;48.49;101928.00;4973299;28;20038;-78
2023/05/04 09:11:45;;;;;;;13.65;7.18;;;;;;;17.10;48.42;101929.25;4973689;28;20038;-78
2023/05/04 09:14:10;;;;;;;10.82;7.60;;;;;;;16.96;47.79;101909.41;4973566;28;20031;-81
2023/05/04 09:16:37;;;;;;;10.85;6.65;;;;;;;17.01;47.74;101886.44;4973711;28;20030;-78
2023/05/04 09:19:03;;;;;;;13.60;7.47;;;;;;;17.35;47.09;101926.53;4973490;28;20030;-77
2023/05/04 09:21:30;;;;;;;10.80;7.25;;;;;;;17.43;47.57;101929.41;4973448;28;20498;-77
2023/05/04 09:23:56;;;;;;;14.75;7.43;;;;;;;17.41;47.19;101914.81;4973282;28;20027;-76
2023/05/04 09:26:29;;;;;;;13.25;7.53;;;;;;;17.23;48.15;101867.41;4973072;28;20364;-82
2023/05/04 09:28:55;;;;;;;12.93;7.47;;;;;;;17.49;47.84;101918.47;4954282;28;20046;-78
2023/05/04 09:31:20;;;;;;;11.50;7.03;;;;;;;17.32;48.19;101900.66;4974140;28;20042;-78
2023/05/04 09:33:45;;;;;;;13.38;7.60;;;;;;;17.40;47.77;101916.59;4973319;28;20038;-74
2023/05/04 09:36:13;;;;;;;13.57;7.82;;;;;;;17.29;48.39;101895.63;4973387;28;20050;-77
2023/05/04 09:38:39;;;;;;;13.20;7.50;;;;;;;17.49;48.06;101912.44;4973206;28;20019;-76
2023/05/04 09:41:04;;;;;;;13.25;8.13;;;;;;;17.51;47.12;101909.72;4972921;28;20027;-76
2023/05/04 09:43:41;;;;;;;12.38;7.53;;;;;;;17.61;49.58;101900.25;4973218;28;20422;-76
2023/05/04 09:46:14;;;;;;;13.63;7.55;;;;;;;17.76;48.63;101899.94;4955460;28;20380;-79
2023/05/04 09:48:50;;;;;;;12.90;7.53;;;;;;;17.64;47.58;101873.88;4973423;28;20102;-79
2023/05/04 09:51:19;;;;;;;12.77;7.75;;;;;;;17.89;49.03;101910.28;4973006;28;20029;-76
2023/05/04 09:53:47;;;;;;;14.38;7.88;;;;;;;17.85;47.11;101906.25;4973055;28;20034;-77
2023/05/04 09:56:28;;;;;;;15.80;8.70;;;;;;;17.69;48.33;101858.69;4973000;28;20023;-77
2023/05/04 09:58:57;;;;;;;13.95;7.63;;;;;;;17.30;49.46;101774.59;4973113;28;20038;-78
2023/05/04 10:01:28;;;;;;;10.48;7.35;;;;;;;17.81;47.98;101859.56;4972908;28;20609;-79
2023/05/04 10:03:53;;;;;;;13.93;7.78;;;;;;;18.15;48.48;101899.59;4972764;28;20063;-79
2023/05/04 10:06:20;;;;;;;12.88;7.85;;;;;;;18.14;46.74;101887.47;4955541;28;20069;-76
2023/05/04 10:08:48;;;;;;;13.20;7.70;;;;;;;18.02;47.07;101858.72;4955451;28;20027;-79
2023/05/04 10:11:14;;;;;;;11.88;7.93;;;;;;;18.14;48.45;101856.94;4972736;28;20031;-77
2023/05/04 10:13:40;;;;;;;13.40;8.02;;;;;;;18.27;48.17;101854.19;4975694;28;20116;-76
2023/05/04 10:16:35;;;;;;;11.98;7.90;;;;;;;18.45;47.70;101862.34;4976359;28;20031;-82
2023/05/04 10:19:03;;;;;;;14.55;8.40;;;;;;;18.56;48.07;101859.69;4878952;29;20497;-79
2023/05/04 10:22:00;;;;;;;13.00;8.38;;;;;;;18.73;47.93;101853.97;4879187;29;20046;-77
2023/05/04 10:24:44;;;;;;;13.23;8.52;;;;;;;18.79;47.85;101845.66;4841860;29;20140;-81
2023/05/04 10:27:14;;;;;;;14.57;8.60;;;;;;;18.84;46.84;101826.94;4841906;29;20112;-76
2023/05/04 10:29:41;;;;;;;12.68;9.27;;;;;;;18.97;45.97;101835.44;4842156;29;20049;-81
2023/05/04 10:32:17;;;;;;;14.60;9.35;;;;;;;18.92;46.41;101812.25;4841912;29;20063;-77
2023/05/04 10:34:44;;;;;;;11.95;8.52;;;;;;;19.10;46.65;101823.00;4841919;29;20141;-81
2023/05/04 10:37:16;;;;;;;14.38;8.95;;;;;;;19.02;45.94;101795.78;4841993;29;20410;-80
2023/05/04 10:39:50;;;;;;;12.80;8.38;;;;;;;19.30;46.18;101810.84;4841928;29;20026;-81
2023/05/04 10:42:15;;;;;;;11.90;8.52;;;;;;;19.36;46.87;101804.25;4841542;29;20042;-78
2023/05/04 10:44:55;;;;;;;13.85;9.07;;;;;;;19.15;46.70;101759.75;4842046;29;20102;-81
2023/05/04 10:47:27;;;;;;;10.10;7.97;;;;;;;19.45;45.90;101788.59;4842608;29;20434;-80
2023/05/04 10:50:05;;;;;;;14.05;8.45;;;;;;;19.46;46.08;101792.03;4841675;29;20098;-77
2023/05/04 10:52:31;;;;;;;13.60;8.18;;;;;;;19.44;44.77;101789.56;4841349;29;20402;-75
2023/05/04 10:55:01;;;;;;;12.02;7.50;;;;;;;19.49;45.13;101787.38;4849156;29;20113;-78
2023/05/04 10:57:27;;;;;;;14.18;7.55;;;;;;;19.49;42.90;101776.06;4934811;29;20043;-81
2023/05/04 10:59:57;;;;;;;11.60;7.10;;;;;;;19.56;44.35;101758.88;4940451;28;20056;-76
2023/05/04 11:02:24;;;;;;;10.27;7.03;;;;;;;19.81;45.44;101757.59;4975693;28;20031;-85
2023/05/04 11:04:59;;;;;;;12.88;7.00;;;;;;;19.88;42.14;101750.03;4975511;28;20022;-77
2023/05/04 11:07:36;;;;;;;9.63;6.65;;;;;;;19.93;44.20;101753.06;4975831;28;20041;-87
2023/05/04 11:10:07;;;;;;;11.25;6.18;;;;;;;19.82;41.94;101732.22;4975674;28;20029;-85
2023/05/04 11:12:33;;;;;;;10.65;6.57;;;;;;;19.94;42.31;101744.22;4957905;28;20038;-78
2023/05/04 11:15:05;;;;;;;10.75;6.43;;;;;;;19.90;41.30;101748.09;4975662;28;20031;-78
2023/05/04 11:17:31;;;;;;;9.70;5.90;;;;;;;19.79;41.02;101720.22;4975803;28;20493;-86